sensor_id;sensor_type;location;lat;lon;timestamp;P1;durP1;ratioP1;P2;durP2;ratioP2
1975;SDS011;988;48.016;7.800;2022-12-24T00:01:32;18.00;;;17.00;;
1975;SDS011;988;48.016;7.800;2022-12-24T00:03:58;17.93;;;17.03;;
1975;SDS011;988;48.016;7.800;2022-12-24T00:06:24;19.10;;;17.47;;
1975;SDS011;988;48.016;7.800;2022-12-24T00:08:49;17.57;;;16.50;;
1975;SDS011;988;48.016;7.800;2022-12-24T00:11:16;18.37;;;17.40;;
1975;SDS011;988;48.016;7.800;2022-12-24T00:13:42;18.30;;;17.00;;
1975;SDS011;988;48.016;7.800;2022-12-24T00:16:07;19.30;;;17.90;;
1975;SDS011;988;48.016;7.800;2022-12-24T00:18:33;18.47;;;16.83;;
1975;SDS011;988;48.016;7.800;2022-12-24T00:20:58;19.20;;;17.60;;
1975;SDS011;988;48.016;7.800;2022-12-24T00:23:25;17.93;;;16.83;;
1975;SDS011;988;48.016;7.800;2022-12-24T00:25:51;18.43;;;17.23;;
1975;SDS011;988;48.016;7.800;2022-12-24T00:28:16;19.53;;;17.60;;
1975;SDS011;988;48.016;7.800;2022-12-24T00:30:42;18.00;;;16.60;;
1975;SDS011;988;48.016;7.800;2022-12-24T00:33:08;17.80;;;16.63;;
1975;SDS011;988;48.016;7.800;2022-12-24T00:35:34;17.53;;;16.17;;
1975;SDS011;988;48.016;7.800;2022-12-24T00:38:00;17.55;;;16.33;;
1975;SDS011;988;48.016;7.800;2022-12-24T00:40:27;16.00;;;15.00;;
1975;SDS011;988;48.016;7.800;2022-12-24T00:42:53;16.20;;;15.20;;
1975;SDS011;988;48.016;7.800;2022-12-24T00:45:19;17.10;;;16.10;;
1975;SDS011;988;48.016;7.800;2022-12-24T00:47:44;17.13;;;15.70;;
1975;SDS011;988;48.016;7.800;2022-12-24T00:50:10;17.07;;;15.80;;
1975;SDS011;988;48.016;7.800;2022-12-24T00:52:35;16.43;;;15.37;;
1975;SDS011;988;48.016;7.800;2022-12-24T00:55:01;17.67;;;16.20;;
1975;SDS011;988;48.016;7.800;2022-12-24T00:57:27;16.00;;;15.00;;
1975;SDS011;988;48.016;7.800;2022-12-24T00:59:53;17.73;;;16.50;;
1975;SDS011;988;48.016;7.800;2022-12-24T01:02:20;16.43;;;15.43;;
1975;SDS011;988;48.016;7.800;2022-12-24T01:04:45;19.07;;;15.30;;
1975;SDS011;988;48.016;7.800;2022-12-24T01:07:30;16.63;;;15.63;;
1975;SDS011;988;48.016;7.800;2022-12-24T01:09:55;15.90;;;14.90;;
1975;SDS011;988;48.016;7.800;2022-12-24T01:12:21;15.60;;;14.60;;
1975;SDS011;988;48.016;7.800;2022-12-24T01:14:47;15.80;;;14.70;;
1975;SDS011;988;48.016;7.800;2022-12-24T01:17:12;15.77;;;14.67;;
1975;SDS011;988;48.016;7.800;2022-12-24T01:19:38;15.50;;;14.70;;
1975;SDS011;988;48.016;7.800;2022-12-24T01:22:04;15.63;;;14.63;;
1975;SDS011;988;48.016;7.800;2022-12-24T01:24:29;17.60;;;16.30;;
1975;SDS011;988;48.016;7.800;2022-12-24T01:26:55;15.10;;;14.27;;
1975;SDS011;988;48.016;7.800;2022-12-24T01:29:20;15.57;;;14.67;;
1975;SDS011;988;48.016;7.800;2022-12-24T01:31:46;16.73;;;15.40;;
1975;SDS011;988;48.016;7.800;2022-12-24T01:34:11;16.27;;;14.83;;
1975;SDS011;988;48.016;7.800;2022-12-24T01:36:37;16.63;;;15.20;;
1975;SDS011;988;48.016;7.800;2022-12-24T01:39:02;16.80;;;15.23;;
1975;SDS011;988;48.016;7.800;2022-12-24T01:41:28;16.23;;;15.30;;
1975;SDS011;988;48.016;7.800;2022-12-24T01:44:24;16.50;;;15.60;;
1975;SDS011;988;48.016;7.800;2022-12-24T01:46:58;16.00;;;14.77;;
1975;SDS011;988;48.016;7.800;2022-12-24T01:49:41;17.23;;;16.17;;
1975;SDS011;988;48.016;7.800;2022-12-24T01:52:12;17.27;;;16.03;;
1975;SDS011;988;48.016;7.800;2022-12-24T01:54:49;17.83;;;16.60;;
1975;SDS011;988;48.016;7.800;2022-12-24T01:57:45;16.95;;;15.95;;
1975;SDS011;988;48.016;7.800;2022-12-24T02:00:16;18.23;;;16.67;;
1975;SDS011;988;48.016;7.800;2022-12-24T02:02:43;17.60;;;16.60;;
1975;SDS011;988;48.016;7.800;2022-12-24T02:05:18;18.02;;;16.88;;
1975;SDS011;988;48.016;7.800;2022-12-24T02:07:53;17.90;;;16.80;;
1975;SDS011;988;48.016;7.800;2022-12-24T02:10:18;18.40;;;16.90;;
1975;SDS011;988;48.016;7.800;2022-12-24T02:12:44;17.93;;;16.70;;
1975;SDS011;988;48.016;7.800;2022-12-24T02:15:12;18.65;;;16.90;;
1975;SDS011;988;48.016;7.800;2022-12-24T02:26:26;18.02;;;16.83;;
1975;SDS011;988;48.016;7.800;2022-12-24T02:29:23;19.48;;;17.83;;
1975;SDS011;988;48.016;7.800;2022-12-24T02:32:18;18.75;;;17.20;;
1975;SDS011;988;48.016;7.800;2022-12-24T02:40:51;20.10;;;18.30;;
1975;SDS011;988;48.016;7.800;2022-12-24T02:43:22;18.55;;;17.25;;
1975;SDS011;988;48.016;7.800;2022-12-24T02:45:57;18.70;;;17.17;;
1975;SDS011;988;48.016;7.800;2022-12-24T02:48:25;17.98;;;16.83;;
1975;SDS011;988;48.016;7.800;2022-12-24T02:50:54;19.55;;;17.75;;
1975;SDS011;988;48.016;7.800;2022-12-24T02:53:21;19.02;;;17.52;;
1975;SDS011;988;48.016;7.800;2022-12-24T02:55:51;20.30;;;18.70;;
1975;SDS011;988;48.016;7.800;2022-12-24T03:01:48;19.70;;;18.10;;
1975;SDS011;988;48.016;7.800;2022-12-24T03:09:32;19.77;;;17.87;;
1975;SDS011;988;48.016;7.800;2022-12-24T03:12:11;21.45;;;18.65;;
1975;SDS011;988;48.016;7.800;2022-12-24T03:14:55;20.80;;;19.33;;
1975;SDS011;988;48.016;7.800;2022-12-24T03:17:22;19.02;;;17.60;;
1975;SDS011;988;48.016;7.800;2022-12-24T03:19:47;20.63;;;18.90;;
1975;SDS011;988;48.016;7.800;2022-12-24T03:22:13;20.50;;;18.80;;
1975;SDS011;988;48.016;7.800;2022-12-24T03:24:42;20.23;;;18.75;;
1975;SDS011;988;48.016;7.800;2022-12-24T03:27:07;19.90;;;17.90;;
1975;SDS011;988;48.016;7.800;2022-12-24T03:29:37;19.83;;;17.85;;
1975;SDS011;988;48.016;7.800;2022-12-24T03:32:04;19.98;;;18.08;;
1975;SDS011;988;48.016;7.800;2022-12-24T03:34:29;18.20;;;17.10;;
1975;SDS011;988;48.016;7.800;2022-12-24T03:36:56;20.53;;;17.60;;
1975;SDS011;988;48.016;7.800;2022-12-24T03:39:22;19.65;;;17.80;;
1975;SDS011;988;48.016;7.800;2022-12-24T03:41:47;18.97;;;17.23;;
1975;SDS011;988;48.016;7.800;2022-12-24T03:44:13;17.30;;;16.00;;
1975;SDS011;988;48.016;7.800;2022-12-24T03:46:39;19.13;;;17.57;;
1975;SDS011;988;48.016;7.800;2022-12-24T03:49:04;20.23;;;18.10;;
1975;SDS011;988;48.016;7.800;2022-12-24T03:51:30;19.10;;;17.47;;
1975;SDS011;988;48.016;7.800;2022-12-24T03:53:57;18.50;;;17.25;;
1975;SDS011;988;48.016;7.800;2022-12-24T03:56:23;21.50;;;18.45;;
1975;SDS011;988;48.016;7.800;2022-12-24T03:58:49;19.52;;;17.88;;
1975;SDS011;988;48.016;7.800;2022-12-24T04:01:15;18.07;;;16.83;;
1975;SDS011;988;48.016;7.800;2022-12-24T04:03:42;18.73;;;17.40;;
1975;SDS011;988;48.016;7.800;2022-12-24T04:06:09;19.40;;;17.40;;
1975;SDS011;988;48.016;7.800;2022-12-24T04:08:36;18.15;;;16.95;;
1975;SDS011;988;48.016;7.800;2022-12-24T04:11:03;19.30;;;17.58;;
1975;SDS011;988;48.016;7.800;2022-12-24T04:13:30;20.00;;;18.20;;
1975;SDS011;988;48.016;7.800;2022-12-24T04:15:59;19.07;;;17.80;;
1975;SDS011;988;48.016;7.800;2022-12-24T04:18:27;18.75;;;17.48;;
1975;SDS011;988;48.016;7.800;2022-12-24T04:20:53;20.58;;;18.83;;
1975;SDS011;988;48.016;7.800;2022-12-24T04:23:19;19.70;;;17.90;;
1975;SDS011;988;48.016;7.800;2022-12-24T04:25:45;20.00;;;18.07;;
1975;SDS011;988;48.016;7.800;2022-12-24T04:28:10;20.57;;;18.70;;
1975;SDS011;988;48.016;7.800;2022-12-24T04:30:40;24.80;;;19.17;;
1975;SDS011;988;48.016;7.800;2022-12-24T04:33:06;20.42;;;18.42;;
1975;SDS011;988;48.016;7.800;2022-12-24T04:35:44;20.60;;;18.63;;
1975;SDS011;988;48.016;7.800;2022-12-24T04:38:10;21.40;;;19.70;;
1975;SDS011;988;48.016;7.800;2022-12-24T04:40:36;20.30;;;18.70;;
1975;SDS011;988;48.016;7.800;2022-12-24T04:43:02;19.50;;;17.70;;
1975;SDS011;988;48.016;7.800;2022-12-24T04:45:27;20.50;;;18.77;;
1975;SDS011;988;48.016;7.800;2022-12-24T04:47:53;19.50;;;17.97;;
1975;SDS011;988;48.016;7.800;2022-12-24T04:50:18;20.57;;;18.77;;
1975;SDS011;988;48.016;7.800;2022-12-24T04:52:44;21.17;;;18.97;;
1975;SDS011;988;48.016;7.800;2022-12-24T04:55:09;24.33;;;21.80;;
1975;SDS011;988;48.016;7.800;2022-12-24T04:57:35;22.03;;;19.97;;
1975;SDS011;988;48.016;7.800;2022-12-24T05:00:02;20.83;;;19.10;;
1975;SDS011;988;48.016;7.800;2022-12-24T05:02:29;21.65;;;19.50;;
1975;SDS011;988;48.016;7.800;2022-12-24T05:04:54;19.93;;;18.43;;
1975;SDS011;988;48.016;7.800;2022-12-24T05:07:20;20.17;;;18.13;;
1975;SDS011;988;48.016;7.800;2022-12-24T05:09:46;22.23;;;19.70;;
1975;SDS011;988;48.016;7.800;2022-12-24T05:12:11;20.67;;;18.37;;
1975;SDS011;988;48.016;7.800;2022-12-24T05:14:37;25.10;;;19.90;;
1975;SDS011;988;48.016;7.800;2022-12-24T05:17:04;21.58;;;19.80;;
1975;SDS011;988;48.016;7.800;2022-12-24T05:19:29;20.47;;;18.97;;
1975;SDS011;988;48.016;7.800;2022-12-24T05:21:55;21.20;;;19.20;;
1975;SDS011;988;48.016;7.800;2022-12-24T05:24:39;21.38;;;17.83;;
1975;SDS011;988;48.016;7.800;2022-12-24T05:27:23;19.30;;;17.77;;
1975;SDS011;988;48.016;7.800;2022-12-24T05:29:49;20.57;;;18.77;;
1975;SDS011;988;48.016;7.800;2022-12-24T05:32:14;20.40;;;18.70;;
1975;SDS011;988;48.016;7.800;2022-12-24T05:34:40;20.37;;;18.77;;
1975;SDS011;988;48.016;7.800;2022-12-24T05:37:05;20.07;;;18.27;;
1975;SDS011;988;48.016;7.800;2022-12-24T05:39:31;20.77;;;18.63;;
1975;SDS011;988;48.016;7.800;2022-12-24T05:41:56;20.30;;;18.30;;
1975;SDS011;988;48.016;7.800;2022-12-24T05:44:22;19.80;;;18.30;;
1975;SDS011;988;48.016;7.800;2022-12-24T05:46:47;21.23;;;19.53;;
1975;SDS011;988;48.016;7.800;2022-12-24T05:49:13;21.60;;;19.33;;
1975;SDS011;988;48.016;7.800;2022-12-24T05:51:38;21.03;;;19.30;;
1975;SDS011;988;48.016;7.800;2022-12-24T05:54:05;20.63;;;18.65;;
1975;SDS011;988;48.016;7.800;2022-12-24T05:56:30;21.37;;;18.80;;
1975;SDS011;988;48.016;7.800;2022-12-24T05:58:56;21.80;;;18.70;;
1975;SDS011;988;48.016;7.800;2022-12-24T06:01:22;23.23;;;19.77;;
1975;SDS011;988;48.016;7.800;2022-12-24T06:03:49;21.25;;;19.75;;
1975;SDS011;988;48.016;7.800;2022-12-24T06:06:19;20.35;;;18.50;;
1975;SDS011;988;48.016;7.800;2022-12-24T06:08:47;20.35;;;18.55;;
1975;SDS011;988;48.016;7.800;2022-12-24T06:11:15;20.13;;;18.20;;
1975;SDS011;988;48.016;7.800;2022-12-24T06:13:42;19.13;;;17.73;;
1975;SDS011;988;48.016;7.800;2022-12-24T06:16:09;23.35;;;19.05;;
1975;SDS011;988;48.016;7.800;2022-12-24T06:18:37;20.30;;;18.50;;
1975;SDS011;988;48.016;7.800;2022-12-24T06:21:03;20.40;;;17.80;;
1975;SDS011;988;48.016;7.800;2022-12-24T06:23:30;19.13;;;17.27;;
1975;SDS011;988;48.016;7.800;2022-12-24T06:25:58;18.27;;;16.88;;
1975;SDS011;988;48.016;7.800;2022-12-24T06:28:28;19.92;;;18.10;;
1975;SDS011;988;48.016;7.800;2022-12-24T06:30:56;19.52;;;18.05;;
1975;SDS011;988;48.016;7.800;2022-12-24T06:33:21;18.40;;;16.83;;
1975;SDS011;988;48.016;7.800;2022-12-24T06:35:47;19.37;;;17.47;;
1975;SDS011;988;48.016;7.800;2022-12-24T06:38:13;19.47;;;17.87;;
1975;SDS011;988;48.016;7.800;2022-12-24T06:40:40;19.08;;;17.45;;
1975;SDS011;988;48.016;7.800;2022-12-24T06:43:07;19.48;;;17.50;;
1975;SDS011;988;48.016;7.800;2022-12-24T06:45:33;20.10;;;18.25;;
1975;SDS011;988;48.016;7.800;2022-12-24T06:47:59;18.57;;;16.97;;
1975;SDS011;988;48.016;7.800;2022-12-24T06:50:25;19.23;;;17.40;;
1975;SDS011;988;48.016;7.800;2022-12-24T06:52:51;18.93;;;17.40;;
1975;SDS011;988;48.016;7.800;2022-12-24T06:55:16;18.50;;;17.07;;
1975;SDS011;988;48.016;7.800;2022-12-24T06:57:42;19.60;;;17.77;;
1975;SDS011;988;48.016;7.800;2022-12-24T07:00:08;19.90;;;18.10;;
1975;SDS011;988;48.016;7.800;2022-12-24T07:02:39;19.75;;;17.55;;
1975;SDS011;988;48.016;7.800;2022-12-24T07:05:05;19.70;;;17.80;;
1975;SDS011;988;48.016;7.800;2022-12-24T07:07:34;19.50;;;17.60;;
1975;SDS011;988;48.016;7.800;2022-12-24T07:10:03;19.00;;;17.10;;
1975;SDS011;988;48.016;7.800;2022-12-24T07:12:30;18.60;;;17.25;;
1975;SDS011;988;48.016;7.800;2022-12-24T07:14:56;18.00;;;16.40;;
1975;SDS011;988;48.016;7.800;2022-12-24T07:17:21;19.17;;;17.37;;
1975;SDS011;988;48.016;7.800;2022-12-24T07:19:47;18.97;;;17.33;;
1975;SDS011;988;48.016;7.800;2022-12-24T07:22:12;17.20;;;16.00;;
1975;SDS011;988;48.016;7.800;2022-12-24T07:24:38;20.70;;;17.40;;
1975;SDS011;988;48.016;7.800;2022-12-24T07:27:04;19.83;;;17.90;;
1975;SDS011;988;48.016;7.800;2022-12-24T07:29:29;19.07;;;17.47;;
1975;SDS011;988;48.016;7.800;2022-12-24T07:31:55;19.90;;;17.93;;
1975;SDS011;988;48.016;7.800;2022-12-24T07:34:20;17.90;;;16.70;;
1975;SDS011;988;48.016;7.800;2022-12-24T07:36:46;19.60;;;17.80;;
1975;SDS011;988;48.016;7.800;2022-12-24T07:39:11;17.77;;;16.33;;
1975;SDS011;988;48.016;7.800;2022-12-24T07:41:37;23.67;;;17.67;;
1975;SDS011;988;48.016;7.800;2022-12-24T07:44:03;20.67;;;17.63;;
1975;SDS011;988;48.016;7.800;2022-12-24T07:46:28;19.33;;;17.50;;
1975;SDS011;988;48.016;7.800;2022-12-24T07:48:54;19.03;;;17.63;;
1975;SDS011;988;48.016;7.800;2022-12-24T07:51:19;18.93;;;16.87;;
1975;SDS011;988;48.016;7.800;2022-12-24T07:53:45;19.70;;;17.80;;
1975;SDS011;988;48.016;7.800;2022-12-24T07:56:15;19.02;;;17.20;;
1975;SDS011;988;48.016;7.800;2022-12-24T07:58:41;21.92;;;17.50;;
1975;SDS011;988;48.016;7.800;2022-12-24T08:01:07;22.08;;;18.20;;
1975;SDS011;988;48.016;7.800;2022-12-24T08:03:33;20.45;;;18.65;;
1975;SDS011;988;48.016;7.800;2022-12-24T08:05:59;26.00;;;17.83;;
1975;SDS011;988;48.016;7.800;2022-12-24T08:08:25;18.80;;;17.13;;
1975;SDS011;988;48.016;7.800;2022-12-24T08:10:50;18.63;;;17.20;;
1975;SDS011;988;48.016;7.800;2022-12-24T08:13:16;17.10;;;15.60;;
1975;SDS011;988;48.016;7.800;2022-12-24T08:15:42;18.17;;;16.70;;
1975;SDS011;988;48.016;7.800;2022-12-24T08:18:09;18.73;;;16.90;;
1975;SDS011;988;48.016;7.800;2022-12-24T08:20:36;19.50;;;17.50;;
1975;SDS011;988;48.016;7.800;2022-12-24T08:23:03;25.57;;;16.70;;
1975;SDS011;988;48.016;7.800;2022-12-24T08:25:29;19.97;;;18.03;;
1975;SDS011;988;48.016;7.800;2022-12-24T08:27:55;19.10;;;17.23;;
1975;SDS011;988;48.016;7.800;2022-12-24T08:30:21;20.38;;;18.33;;
1975;SDS011;988;48.016;7.800;2022-12-24T08:32:47;18.93;;;17.27;;
1975;SDS011;988;48.016;7.800;2022-12-24T08:35:13;19.23;;;17.90;;
1975;SDS011;988;48.016;7.800;2022-12-24T08:37:38;19.43;;;17.33;;
1975;SDS011;988;48.016;7.800;2022-12-24T08:40:04;20.37;;;18.37;;
1975;SDS011;988;48.016;7.800;2022-12-24T08:42:30;22.30;;;20.30;;
1975;SDS011;988;48.016;7.800;2022-12-24T08:44:56;18.60;;;16.90;;
1975;SDS011;988;48.016;7.800;2022-12-24T08:47:21;18.30;;;16.83;;
1975;SDS011;988;48.016;7.800;2022-12-24T08:49:47;19.07;;;17.20;;
1975;SDS011;988;48.016;7.800;2022-12-24T08:52:12;19.30;;;17.70;;
1975;SDS011;988;48.016;7.800;2022-12-24T08:54:38;18.00;;;16.70;;
1975;SDS011;988;48.016;7.800;2022-12-24T08:57:03;19.73;;;17.63;;
1975;SDS011;988;48.016;7.800;2022-12-24T08:59:29;19.77;;;18.03;;
1975;SDS011;988;48.016;7.800;2022-12-24T09:01:54;19.23;;;17.73;;
1975;SDS011;988;48.016;7.800;2022-12-24T09:04:20;19.93;;;18.07;;
1975;SDS011;988;48.016;7.800;2022-12-24T09:06:45;19.57;;;17.80;;
1975;SDS011;988;48.016;7.800;2022-12-24T09:09:11;20.83;;;18.90;;
1975;SDS011;988;48.016;7.800;2022-12-24T09:11:36;20.13;;;18.73;;
1975;SDS011;988;48.016;7.800;2022-12-24T09:14:02;20.20;;;18.30;;
1975;SDS011;988;48.016;7.800;2022-12-24T09:16:28;19.60;;;18.10;;
1975;SDS011;988;48.016;7.800;2022-12-24T09:18:55;19.83;;;18.03;;
1975;SDS011;988;48.016;7.800;2022-12-24T09:21:21;19.77;;;18.23;;
1975;SDS011;988;48.016;7.800;2022-12-24T09:23:47;19.60;;;18.20;;
1975;SDS011;988;48.016;7.800;2022-12-24T09:26:31;19.67;;;18.10;;
1975;SDS011;988;48.016;7.800;2022-12-24T09:28:57;20.43;;;18.77;;
1975;SDS011;988;48.016;7.800;2022-12-24T09:31:26;19.30;;;17.90;;
1975;SDS011;988;48.016;7.800;2022-12-24T09:33:52;19.90;;;18.13;;
1975;SDS011;988;48.016;7.800;2022-12-24T09:36:18;19.10;;;17.80;;
1975;SDS011;988;48.016;7.800;2022-12-24T09:38:44;19.90;;;18.50;;
1975;SDS011;988;48.016;7.800;2022-12-24T09:43:51;21.30;;;19.70;;
1975;SDS011;988;48.016;7.800;2022-12-24T09:46:27;19.00;;;17.60;;
1975;SDS011;988;48.016;7.800;2022-12-24T09:49:05;20.37;;;18.30;;
1975;SDS011;988;48.016;7.800;2022-12-24T09:51:53;18.70;;;17.60;;
1975;SDS011;988;48.016;7.800;2022-12-24T09:54:28;19.23;;;17.83;;
1975;SDS011;988;48.016;7.800;2022-12-24T09:57:27;18.87;;;17.30;;
1975;SDS011;988;48.016;7.800;2022-12-24T09:59:58;18.87;;;17.63;;
1975;SDS011;988;48.016;7.800;2022-12-24T10:02:24;18.60;;;17.10;;
1975;SDS011;988;48.016;7.800;2022-12-24T10:04:49;17.57;;;16.67;;
1975;SDS011;988;48.016;7.800;2022-12-24T10:09:50;18.30;;;17.00;;
1975;SDS011;988;48.016;7.800;2022-12-24T10:26:35;19.83;;;18.63;;
1975;SDS011;988;48.016;7.800;2022-12-24T10:31:53;20.40;;;19.10;;
1975;SDS011;988;48.016;7.800;2022-12-24T10:34:26;20.17;;;18.67;;
1975;SDS011;988;48.016;7.800;2022-12-24T10:37:01;20.10;;;18.60;;
1975;SDS011;988;48.016;7.800;2022-12-24T10:39:28;19.80;;;18.60;;
1975;SDS011;988;48.016;7.800;2022-12-24T10:41:55;20.20;;;18.87;;
1975;SDS011;988;48.016;7.800;2022-12-24T10:44:24;19.73;;;18.63;;
1975;SDS011;988;48.016;7.800;2022-12-24T10:46:52;19.60;;;18.20;;
1975;SDS011;988;48.016;7.800;2022-12-24T10:49:20;20.07;;;18.80;;
1975;SDS011;988;48.016;7.800;2022-12-24T10:54:33;20.90;;;19.60;;
1975;SDS011;988;48.016;7.800;2022-12-24T10:57:03;21.53;;;20.23;;
1975;SDS011;988;48.016;7.800;2022-12-24T10:59:30;22.10;;;20.80;;
1975;SDS011;988;48.016;7.800;2022-12-24T11:01:59;21.67;;;20.37;;
1975;SDS011;988;48.016;7.800;2022-12-24T11:04:27;23.00;;;21.40;;
1975;SDS011;988;48.016;7.800;2022-12-24T11:06:55;22.07;;;20.67;;
1975;SDS011;988;48.016;7.800;2022-12-24T11:09:34;22.93;;;21.20;;
1975;SDS011;988;48.016;7.800;2022-12-24T11:12:05;22.97;;;21.37;;
1975;SDS011;988;48.016;7.800;2022-12-24T11:18:00;21.27;;;20.07;;
1975;SDS011;988;48.016;7.800;2022-12-24T11:20:30;22.00;;;20.70;;
1975;SDS011;988;48.016;7.800;2022-12-24T11:22:58;22.73;;;21.27;;
1975;SDS011;988;48.016;7.800;2022-12-24T11:25:27;23.40;;;21.67;;
1975;SDS011;988;48.016;7.800;2022-12-24T11:28:10;23.17;;;21.63;;
1975;SDS011;988;48.016;7.800;2022-12-24T11:30:36;22.87;;;21.47;;
1975;SDS011;988;48.016;7.800;2022-12-24T11:35:29;21.57;;;20.37;;
1975;SDS011;988;48.016;7.800;2022-12-24T11:43:25;21.47;;;20.07;;
1975;SDS011;988;48.016;7.800;2022-12-24T11:46:16;20.80;;;19.60;;
1975;SDS011;988;48.016;7.800;2022-12-24T11:48:43;20.53;;;19.13;;
1975;SDS011;988;48.016;7.800;2022-12-24T11:51:23;20.70;;;19.50;;
1975;SDS011;988;48.016;7.800;2022-12-24T11:54:03;20.40;;;19.07;;
1975;SDS011;988;48.016;7.800;2022-12-24T11:56:42;20.53;;;18.90;;
1975;SDS011;988;48.016;7.800;2022-12-24T12:05:15;21.07;;;19.10;;
1975;SDS011;988;48.016;7.800;2022-12-24T12:07:44;20.33;;;19.10;;
1975;SDS011;988;48.016;7.800;2022-12-24T12:13:13;20.00;;;18.80;;
1975;SDS011;988;48.016;7.800;2022-12-24T12:15:52;20.00;;;18.77;;
1975;SDS011;988;48.016;7.800;2022-12-24T12:18:35;19.80;;;18.50;;
1975;SDS011;988;48.016;7.800;2022-12-24T12:21:05;19.50;;;18.40;;
1975;SDS011;988;48.016;7.800;2022-12-24T12:23:53;19.03;;;17.90;;
1975;SDS011;988;48.016;7.800;2022-12-24T12:26:26;20.17;;;18.90;;
1975;SDS011;988;48.016;7.800;2022-12-24T12:28:55;19.70;;;18.33;;
1975;SDS011;988;48.016;7.800;2022-12-24T12:34:10;20.37;;;18.73;;
1975;SDS011;988;48.016;7.800;2022-12-24T12:36:38;20.57;;;19.10;;
1975;SDS011;988;48.016;7.800;2022-12-24T12:39:11;19.50;;;18.30;;
1975;SDS011;988;48.016;7.800;2022-12-24T12:41:45;20.10;;;18.97;;
1975;SDS011;988;48.016;7.800;2022-12-24T12:55:48;19.37;;;18.17;;
1975;SDS011;988;48.016;7.800;2022-12-24T12:58:58;20.00;;;18.67;;
1975;SDS011;988;48.016;7.800;2022-12-24T13:01:13;19.57;;;17.97;;
1975;SDS011;988;48.016;7.800;2022-12-24T13:09:39;19.07;;;17.67;;
1975;SDS011;988;48.016;7.800;2022-12-24T13:15:20;19.27;;;17.70;;
1975;SDS011;988;48.016;7.800;2022-12-24T13:21:17;19.57;;;18.30;;
1975;SDS011;988;48.016;7.800;2022-12-24T13:23:46;19.10;;;17.80;;
1975;SDS011;988;48.016;7.800;2022-12-24T13:26:12;19.43;;;18.33;;
1975;SDS011;988;48.016;7.800;2022-12-24T13:28:39;21.07;;;19.23;;
1975;SDS011;988;48.016;7.800;2022-12-24T13:33:52;18.80;;;17.50;;
1975;SDS011;988;48.016;7.800;2022-12-24T13:36:19;20.13;;;18.83;;
1975;SDS011;988;48.016;7.800;2022-12-24T13:46:45;18.80;;;17.60;;
1975;SDS011;988;48.016;7.800;2022-12-24T13:49:16;18.93;;;17.50;;
1975;SDS011;988;48.016;7.800;2022-12-24T13:51:44;19.17;;;18.00;;
1975;SDS011;988;48.016;7.800;2022-12-24T13:54:11;20.07;;;18.67;;
1975;SDS011;988;48.016;7.800;2022-12-24T13:56:38;18.20;;;17.20;;
1975;SDS011;988;48.016;7.800;2022-12-24T14:01:56;19.07;;;17.90;;
1975;SDS011;988;48.016;7.800;2022-12-24T14:04:26;18.40;;;17.30;;
1975;SDS011;988;48.016;7.800;2022-12-24T14:06:56;18.40;;;17.30;;
1975;SDS011;988;48.016;7.800;2022-12-24T14:09:25;20.00;;;18.70;;
1975;SDS011;988;48.016;7.800;2022-12-24T14:14:28;19.47;;;18.27;;
1975;SDS011;988;48.016;7.800;2022-12-24T14:17:24;19.53;;;18.20;;
1975;SDS011;988;48.016;7.800;2022-12-24T14:19:51;18.60;;;17.60;;
1975;SDS011;988;48.016;7.800;2022-12-24T14:22:32;20.60;;;19.20;;
1975;SDS011;988;48.016;7.800;2022-12-24T14:25:02;19.83;;;18.43;;
1975;SDS011;988;48.016;7.800;2022-12-24T14:27:38;19.63;;;18.33;;
1975;SDS011;988;48.016;7.800;2022-12-24T14:30:17;22.13;;;20.73;;
1975;SDS011;988;48.016;7.800;2022-12-24T14:32:44;19.25;;;17.70;;
1975;SDS011;988;48.016;7.800;2022-12-24T14:35:14;19.55;;;18.35;;
1975;SDS011;988;48.016;7.800;2022-12-24T14:40:47;18.53;;;17.40;;
1975;SDS011;988;48.016;7.800;2022-12-24T14:46:06;19.13;;;18.03;;
1975;SDS011;988;48.016;7.800;2022-12-24T14:49:01;19.00;;;17.80;;
1975;SDS011;988;48.016;7.800;2022-12-24T14:51:32;20.35;;;19.05;;
1975;SDS011;988;48.016;7.800;2022-12-24T14:56:41;20.08;;;18.90;;
1975;SDS011;988;48.016;7.800;2022-12-24T14:59:14;19.33;;;18.03;;
1975;SDS011;988;48.016;7.800;2022-12-24T15:01:43;20.20;;;19.10;;
1975;SDS011;988;48.016;7.800;2022-12-24T15:09:18;18.53;;;17.33;;
1975;SDS011;988;48.016;7.800;2022-12-24T15:11:50;18.00;;;16.90;;
1975;SDS011;988;48.016;7.800;2022-12-24T15:14:18;19.77;;;18.13;;
1975;SDS011;988;48.016;7.800;2022-12-24T15:16:51;18.80;;;17.60;;
1975;SDS011;988;48.016;7.800;2022-12-24T15:21:51;22.13;;;19.08;;
1975;SDS011;988;48.016;7.800;2022-12-24T15:26:56;19.87;;;18.47;;
1975;SDS011;988;48.016;7.800;2022-12-24T15:29:38;18.60;;;17.33;;
1975;SDS011;988;48.016;7.800;2022-12-24T15:32:09;18.47;;;17.37;;
1975;SDS011;988;48.016;7.800;2022-12-24T15:34:39;19.00;;;17.80;;
1975;SDS011;988;48.016;7.800;2022-12-24T15:37:11;18.65;;;17.45;;
1975;SDS011;988;48.016;7.800;2022-12-24T15:39:43;19.58;;;18.00;;
1975;SDS011;988;48.016;7.800;2022-12-24T15:42:17;20.10;;;18.77;;
1975;SDS011;988;48.016;7.800;2022-12-24T15:44:57;19.50;;;17.80;;
1975;SDS011;988;48.016;7.800;2022-12-24T15:48:09;18.23;;;16.92;;
1975;SDS011;988;48.016;7.800;2022-12-24T15:50:33;18.65;;;17.55;;
1975;SDS011;988;48.016;7.800;2022-12-24T15:53:11;19.00;;;17.30;;
1975;SDS011;988;48.016;7.800;2022-12-24T15:58:52;19.67;;;18.17;;
1975;SDS011;988;48.016;7.800;2022-12-24T16:01:55;18.17;;;17.07;;
1975;SDS011;988;48.016;7.800;2022-12-24T16:06:58;18.70;;;17.40;;
1975;SDS011;988;48.016;7.800;2022-12-24T16:09:38;18.77;;;17.67;;
1975;SDS011;988;48.016;7.800;2022-12-24T16:14:46;18.65;;;17.45;;
1975;SDS011;988;48.016;7.800;2022-12-24T16:17:25;18.50;;;17.10;;
1975;SDS011;988;48.016;7.800;2022-12-24T16:19:54;17.77;;;16.58;;
1975;SDS011;988;48.016;7.800;2022-12-24T16:22:24;17.60;;;16.20;;
1975;SDS011;988;48.016;7.800;2022-12-24T16:24:56;18.73;;;17.50;;
1975;SDS011;988;48.016;7.800;2022-12-24T16:27:22;18.33;;;17.03;;
1975;SDS011;988;48.016;7.800;2022-12-24T16:29:48;19.07;;;17.90;;
1975;SDS011;988;48.016;7.800;2022-12-24T16:32:20;19.23;;;17.93;;
1975;SDS011;988;48.016;7.800;2022-12-24T16:34:59;18.57;;;17.27;;
1975;SDS011;988;48.016;7.800;2022-12-24T16:37:27;20.48;;;19.13;;
1975;SDS011;988;48.016;7.800;2022-12-24T16:39:52;18.37;;;17.23;;
1975;SDS011;988;48.016;7.800;2022-12-24T16:42:18;20.20;;;18.90;;
1975;SDS011;988;48.016;7.800;2022-12-24T16:45:02;19.80;;;18.25;;
1975;SDS011;988;48.016;7.800;2022-12-24T16:47:32;18.65;;;17.35;;
1975;SDS011;988;48.016;7.800;2022-12-24T16:50:00;17.95;;;17.00;;
1975;SDS011;988;48.016;7.800;2022-12-24T16:52:27;18.88;;;17.67;;
1975;SDS011;988;48.016;7.800;2022-12-24T16:54:54;19.42;;;18.17;;
1975;SDS011;988;48.016;7.800;2022-12-24T16:57:21;18.83;;;17.70;;
1975;SDS011;988;48.016;7.800;2022-12-24T16:59:47;19.58;;;18.30;;
1975;SDS011;988;48.016;7.800;2022-12-24T17:02:15;18.92;;;17.75;;
1975;SDS011;988;48.016;7.800;2022-12-24T17:04:42;18.80;;;17.58;;
1975;SDS011;988;48.016;7.800;2022-12-24T17:07:15;19.58;;;18.25;;
1975;SDS011;988;48.016;7.800;2022-12-24T17:09:42;18.58;;;17.58;;
1975;SDS011;988;48.016;7.800;2022-12-24T17:12:08;19.80;;;18.33;;
1975;SDS011;988;48.016;7.800;2022-12-24T17:14:34;18.23;;;16.83;;
1975;SDS011;988;48.016;7.800;2022-12-24T17:17:01;20.87;;;19.67;;
1975;SDS011;988;48.016;7.800;2022-12-24T17:19:26;20.60;;;19.13;;
1975;SDS011;988;48.016;7.800;2022-12-24T17:21:52;20.93;;;19.67;;
1975;SDS011;988;48.016;7.800;2022-12-24T17:24:17;19.30;;;18.10;;
1975;SDS011;988;48.016;7.800;2022-12-24T17:26:43;20.40;;;19.00;;
1975;SDS011;988;48.016;7.800;2022-12-24T17:29:08;20.10;;;18.70;;
1975;SDS011;988;48.016;7.800;2022-12-24T17:31:34;20.60;;;19.27;;